createdAt,value
2017-10-03T00:00:12.184Z,71.30
2017-10-03T00:02:41.152Z,71.10
2017-10-03T00:05:10.272Z,71.20
2017-10-03T00:07:38.822Z,70.90
2017-10-03T00:10:07.792Z,70.70
2017-10-03T00:12:37.403Z,70.80
2017-10-03T00:15:06.971Z,70.90
2017-10-03T00:17:35.703Z,70.90
2017-10-03T00:20:04.794Z,71.00
2017-10-03T00:22:33.822Z,71.00
2017-10-03T00:25:02.363Z,71.00
2017-10-03T00:27:32.123Z,71.30
2017-10-03T00:30:00.773Z,71.20
2017-10-03T00:32:29.591Z,70.90
2017-10-03T00:34:58.353Z,70.80
2017-10-03T00:37:26.864Z,70.50
2017-10-03T00:39:55.773Z,70.80
2017-10-03T00:42:24.612Z,70.80
2017-10-03T00:44:53.563Z,70.70
2017-10-03T00:47:22.652Z,71.00
2017-10-03T00:49:51.552Z,71.40
2017-10-03T00:52:20.763Z,70.70
2017-10-03T00:54:50.533Z,70.80
2017-10-03T00:57:19.392Z,70.80
2017-10-03T00:59:48.313Z,71.00
2017-10-03T01:02:17.091Z,71.30
2017-10-03T01:04:45.972Z,71.20
2017-10-03T01:07:15.243Z,71.50
2017-10-03T01:09:44.332Z,71.50
2017-10-03T01:12:14.104Z,71.10
2017-10-03T01:14:43.083Z,71.00
2017-10-03T01:17:11.753Z,70.80
2017-10-03T01:19:40.494Z,71.30
2017-10-03T01:22:10.054Z,71.50
2017-10-03T01:24:38.894Z,70.80
2017-10-03T01:27:08.414Z,70.90
2017-10-03T01:29:37.222Z,70.80
2017-10-03T01:32:06.232Z,70.80
2017-10-03T01:34:34.843Z,70.90
2017-10-03T01:37:03.433Z,70.70
2017-10-03T01:39:32.503Z,70.80
2017-10-03T01:42:01.443Z,70.70
2017-10-03T01:44:29.623Z,70.80
2017-10-03T01:46:57.984Z,70.80
2017-10-03T01:49:27.214Z,71.00
2017-10-03T01:51:56.213Z,70.90
2017-10-03T01:54:25.393Z,70.90
2017-10-03T01:56:54.192Z,71.10
2017-10-03T01:59:22.903Z,71.30
2017-10-03T02:01:51.683Z,71.40
2017-10-03T02:04:20.882Z,71.50
2017-10-03T02:06:49.612Z,71.30
2017-10-03T02:09:19.341Z,71.00
2017-10-03T02:11:48.153Z,70.90
2017-10-03T02:14:17.052Z,71.20
2017-10-03T02:16:46.454Z,71.10
2017-10-03T02:19:15.014Z,71.00
2017-10-03T02:21:43.833Z,71.00
2017-10-03T02:24:12.533Z,70.90
2017-10-03T02:26:41.825Z,71.00
2017-10-03T02:29:10.584Z,71.00
2017-10-03T02:31:39.173Z,70.70
2017-10-03T02:34:07.972Z,70.80
2017-10-03T02:36:36.754Z,70.90
2017-10-03T02:39:05.788Z,70.90
2017-10-03T02:41:35.602Z,71.80
2017-10-03T02:44:05.203Z,71.00
2017-10-03T02:46:35.023Z,70.90
2017-10-03T02:49:04.283Z,71.00
2017-10-03T02:51:32.902Z,70.90
2017-10-03T02:54:02.112Z,70.80
2017-10-03T02:56:31.862Z,71.00
2017-10-03T02:59:01.383Z,70.90
2017-10-03T03:01:30.152Z,70.80
2017-10-03T03:03:59.393Z,70.60
2017-10-03T03:06:28.433Z,70.60
2017-10-03T03:08:57.263Z,70.90
2017-10-03T03:11:26.353Z,70.80
2017-10-03T03:13:55.082Z,70.90
2017-10-03T03:16:23.752Z,70.90
2017-10-03T03:18:52.773Z,71.10
2017-10-03T03:21:21.633Z,71.20
2017-10-03T03:23:51.303Z,71.40
2017-10-03T03:26:19.933Z,71.30
2017-10-03T03:28:49.412Z,71.60
2017-10-03T03:31:17.872Z,71.60
2017-10-03T03:33:46.641Z,71.60
2017-10-03T03:36:15.283Z,71.70
2017-10-03T03:38:45.093Z,71.60
2017-10-03T03:41:14.483Z,71.50
2017-10-03T03:43:43.442Z,71.40
2017-10-03T03:46:12.224Z,71.50
2017-10-03T03:48:40.773Z,71.70
2017-10-03T03:51:09.543Z,71.60
2017-10-03T03:53:39.022Z,71.70
2017-10-03T03:56:07.966Z,71.60
2017-10-03T03:58:36.603Z,71.70
2017-10-03T04:01:05.262Z,71.70
2017-10-03T04:03:34.052Z,71.70
2017-10-03T04:06:03.402Z,71.50
2017-10-03T04:08:33.272Z,71.70
2017-10-03T04:11:02.422Z,71.60
2017-10-03T04:13:31.264Z,71.80
2017-10-03T04:16:00.137Z,71.60
2017-10-03T04:18:28.981Z,71.50
2017-10-03T04:20:58.874Z,72.00
2017-10-03T04:23:27.693Z,72.00
2017-10-03T04:25:56.472Z,72.30
2017-10-03T04:28:25.992Z,72.20
2017-10-03T04:30:54.663Z,72.20
2017-10-03T04:33:24.083Z,72.20
2017-10-03T04:35:53.543Z,71.90
2017-10-03T04:38:23.272Z,71.60
2017-10-03T04:40:52.782Z,71.30
2017-10-03T04:43:22.173Z,71.20
2017-10-03T04:45:52.012Z,71.60
2017-10-03T04:48:21.062Z,71.60
2017-10-03T04:50:49.744Z,71.20
2017-10-03T04:53:18.411Z,70.80
2017-10-03T04:55:47.283Z,70.40
2017-10-03T04:58:16.553Z,70.40
2017-10-03T05:00:45.142Z,70.80
2017-10-03T05:03:13.803Z,71.10
2017-10-03T05:05:43.250Z,71.30
2017-10-03T05:08:12.198Z,71.20
2017-10-03T05:10:43.255Z,72.20
2017-10-03T05:13:11.697Z,72.20
2017-10-03T05:15:41.062Z,72.30
2017-10-03T05:18:10.322Z,72.90
2017-10-03T05:20:40.564Z,73.00
2017-10-03T05:23:10.123Z,72.90
2017-10-03T05:25:41.523Z,72.60
2017-10-03T05:28:10.275Z,72.40
2017-10-03T05:30:39.462Z,72.20
2017-10-03T05:33:08.133Z,71.90
2017-10-03T05:35:37.052Z,71.60
2017-10-03T05:38:06.522Z,72.40
2017-10-03T05:40:35.023Z,72.20
2017-10-03T05:43:03.362Z,71.30
2017-10-03T05:45:32.343Z,71.50
2017-10-03T05:48:01.516Z,71.70
2017-10-03T05:50:30.597Z,71.40
2017-10-03T05:52:59.373Z,72.10
2017-10-03T05:55:28.559Z,72.00
2017-10-03T05:57:57.482Z,71.60
2017-10-03T06:00:27.132Z,71.80
2017-10-03T06:02:55.943Z,71.80
2017-10-03T06:05:24.783Z,71.50
2017-10-03T06:07:53.543Z,71.70
2017-10-03T06:10:23.342Z,71.70
2017-10-03T06:12:51.753Z,71.70
2017-10-03T06:15:20.402Z,72.00
2017-10-03T06:17:49.173Z,72.30
2017-10-03T06:20:18.043Z,71.80
2017-10-03T06:22:47.243Z,71.90
2017-10-03T06:25:16.413Z,72.10
2017-10-03T06:27:45.393Z,72.30
2017-10-03T06:30:15.502Z,72.50
2017-10-03T06:32:45.292Z,72.00
2017-10-03T06:35:14.133Z,72.00
2017-10-03T06:37:42.933Z,72.00
2017-10-03T06:40:11.841Z,72.20
2017-10-03T06:42:40.882Z,72.30
2017-10-03T06:45:10.013Z,72.60
2017-10-03T06:47:39.177Z,72.90
2017-10-03T06:50:08.132Z,73.20
2017-10-03T06:52:37.293Z,73.30
2017-10-03T06:55:06.263Z,73.40
2017-10-03T06:57:35.272Z,73.00
2017-10-03T07:00:03.652Z,74.00
2017-10-03T07:07:27.383Z,76.30
2017-10-03T07:09:55.883Z,75.60
2017-10-03T07:12:24.063Z,74.20
2017-10-03T07:14:52.483Z,73.50
2017-10-03T07:17:21.097Z,73.40
2017-10-03T07:19:49.489Z,74.20
2017-10-03T07:22:17.913Z,74.20
2017-10-03T07:24:46.466Z,75.20
2017-10-03T07:27:15.057Z,75.40
2017-10-03T07:29:44.660Z,75.30
2017-10-03T07:32:13.981Z,74.30
2017-10-03T07:34:42.336Z,74.30
2017-10-03T07:37:11.437Z,74.40
2017-10-03T07:39:40.707Z,74.90
2017-10-03T07:42:08.977Z,74.90
2017-10-03T07:44:37.436Z,75.70
2017-10-03T07:47:06.055Z,75.90
2017-10-03T07:49:34.435Z,76.00
2017-10-03T07:52:03.537Z,75.60
2017-10-03T07:54:31.806Z,75.00
2017-10-03T07:57:00.240Z,74.60
2017-10-03T07:59:28.633Z,75.00
2017-10-03T08:01:57.120Z,75.70
2017-10-03T08:04:25.633Z,74.70
2017-10-03T08:06:54.948Z,75.40
2017-10-03T08:09:23.589Z,75.40
2017-10-03T08:11:51.833Z,76.50
2017-10-03T08:14:20.154Z,76.60
2017-10-03T08:16:48.676Z,74.70
2017-10-03T08:19:17.239Z,75.90
2017-10-03T08:21:46.614Z,76.40
2017-10-03T08:24:14.873Z,76.30
2017-10-03T08:26:43.293Z,75.70
2017-10-03T08:29:12.496Z,76.20
2017-10-03T08:31:41.868Z,76.20
2017-10-03T08:34:10.284Z,76.20
2017-10-03T08:36:38.748Z,77.00
2017-10-03T08:39:07.199Z,76.90
2017-10-03T08:41:35.710Z,76.90
2017-10-03T08:44:04.708Z,77.40
2017-10-03T08:46:33.820Z,76.60
2017-10-03T08:49:02.348Z,76.60
2017-10-03T08:51:30.701Z,76.20
2017-10-03T08:53:59.434Z,77.60
2017-10-03T08:56:28.526Z,76.70
2017-10-03T08:58:57.090Z,76.70
2017-10-03T09:01:25.592Z,77.40
2017-10-03T09:03:53.971Z,77.80
2017-10-03T09:06:22.242Z,78.10
2017-10-03T09:08:51.547Z,77.00
2017-10-03T09:11:20.115Z,77.50
2017-10-03T09:13:48.504Z,77.60
2017-10-03T09:16:16.853Z,77.70
2017-10-03T09:18:45.190Z,77.90
2017-10-03T09:21:13.512Z,77.10
2017-10-03T09:23:42.014Z,76.50
2017-10-03T09:26:11.312Z,75.90
2017-10-03T09:28:39.738Z,75.90
2017-10-03T09:31:08.165Z,75.50
2017-10-03T09:33:37.279Z,76.60
2017-10-03T09:36:06.647Z,76.50
2017-10-03T09:38:35.153Z,76.50
2017-10-03T09:41:03.456Z,76.00
2017-10-03T09:43:31.598Z,76.50
2017-10-03T09:45:59.977Z,76.10
2017-10-03T09:48:28.338Z,76.40
2017-10-03T09:50:56.831Z,76.50
2017-10-03T09:53:25.973Z,77.20
2017-10-03T09:55:54.500Z,77.40
2017-10-03T09:58:23.100Z,77.30
2017-10-03T10:00:52.061Z,76.70
2017-10-03T10:03:20.359Z,76.70
2017-10-03T10:05:48.623Z,76.20
2017-10-03T10:08:16.968Z,77.00
2017-10-03T10:10:45.429Z,76.20
2017-10-03T10:13:13.855Z,77.10
2017-10-03T10:15:42.148Z,77.30
2017-10-03T10:18:10.614Z,75.80
2017-10-03T10:20:39.010Z,75.90
2017-10-03T10:23:07.371Z,75.30
2017-10-03T10:25:35.776Z,73.40
2017-10-03T10:28:04.628Z,74.70
2017-10-03T10:30:32.974Z,74.60
2017-10-03T10:33:01.300Z,74.10
2017-10-03T10:35:29.577Z,73.10
2017-10-03T10:37:58.153Z,73.60
2017-10-03T10:40:26.999Z,72.40
2017-10-03T10:42:55.540Z,71.80
2017-10-03T10:45:23.808Z,70.70
2017-10-03T10:47:52.300Z,71.00
2017-10-03T10:50:21.339Z,72.00
2017-10-03T10:52:49.972Z,71.30
2017-10-03T10:55:18.236Z,70.20
2017-10-03T10:57:46.584Z,70.60
2017-10-03T11:00:17.138Z,71.30
2017-10-03T11:02:45.631Z,70.50
2017-10-03T11:05:13.995Z,70.60
2017-10-03T11:07:42.350Z,71.80
2017-10-03T11:10:10.753Z,71.00
2017-10-03T11:12:39.045Z,70.80
2017-10-03T11:15:08.445Z,69.60
2017-10-03T11:17:37.770Z,68.60
2017-10-03T11:20:06.121Z,68.50
2017-10-03T11:22:47.187Z,68.00
2017-10-03T11:25:16.086Z,67.50
2017-10-03T11:27:44.669Z,68.00
2017-10-03T11:30:14.560Z,63.10
2017-10-03T11:32:43.101Z,63.10
2017-10-03T11:35:11.724Z,66.70
2017-10-03T11:37:40.227Z,66.00
2017-10-03T11:40:09.336Z,61.00
2017-10-03T11:42:38.759Z,62.20
2017-10-03T11:45:07.206Z,62.20
2017-10-03T11:47:36.485Z,60.40
2017-10-03T11:50:04.625Z,60.20
2017-10-03T11:52:33.344Z,58.40
2017-10-03T11:55:01.849Z,57.20
2017-10-03T11:57:30.188Z,57.30
2017-10-03T11:59:58.623Z,57.50
2017-10-03T12:02:27.684Z,54.60
2017-10-03T12:04:56.091Z,54.70
2017-10-03T12:07:25.276Z,54.90
2017-10-03T12:09:53.861Z,54.90
2017-10-03T12:12:22.152Z,55.50
2017-10-03T12:14:51.408Z,55.00
2017-10-03T12:17:19.788Z,55.00
2017-10-03T12:19:48.069Z,54.50
2017-10-03T12:22:16.668Z,55.90
2017-10-03T12:24:45.974Z,57.50
2017-10-03T12:27:14.731Z,57.10
2017-10-03T12:29:43.260Z,57.10
2017-10-03T12:32:11.864Z,56.40
2017-10-03T12:34:40.652Z,56.10
2017-10-03T12:37:08.965Z,56.00
2017-10-03T12:39:37.490Z,55.10
2017-10-03T12:42:06.146Z,55.30
2017-10-03T12:44:35.235Z,56.80
2017-10-03T12:47:03.524Z,56.80
2017-10-03T12:49:32.600Z,55.90
2017-10-03T12:52:02.574Z,55.30
2017-10-03T12:54:30.995Z,55.30
2017-10-03T12:56:59.390Z,56.20
2017-10-03T12:59:28.889Z,56.00
2017-10-03T13:01:57.875Z,57.70
2017-10-03T13:04:26.294Z,57.10
2017-10-03T13:06:54.450Z,56.30
2017-10-03T13:09:23.732Z,55.60
2017-10-03T13:11:53.121Z,55.70
2017-10-03T13:14:21.460Z,55.70
2017-10-03T13:16:50.363Z,56.50
2017-10-03T13:19:18.760Z,55.00
2017-10-03T13:21:47.465Z,54.90
2017-10-03T13:24:17.001Z,55.90
2017-10-03T13:26:45.242Z,55.30
2017-10-03T13:29:13.732Z,56.30
2017-10-03T13:31:43.965Z,55.00
2017-10-03T13:34:13.037Z,55.40
2017-10-03T13:36:41.416Z,55.40
2017-10-03T13:39:09.768Z,55.30
2017-10-03T13:41:38.042Z,55.40
2017-10-03T13:44:06.247Z,55.10
2017-10-03T13:46:35.756Z,54.80
2017-10-03T13:49:04.717Z,55.20
2017-10-03T13:51:32.909Z,55.10
2017-10-03T13:54:01.507Z,54.10
2017-10-03T13:56:30.967Z,53.90
2017-10-03T13:58:59.448Z,53.80
2017-10-03T14:01:27.634Z,53.20
2017-10-03T14:03:56.229Z,53.40
2017-10-03T14:06:24.697Z,52.80
2017-10-03T14:08:53.191Z,52.90
2017-10-03T14:11:22.219Z,52.60
2017-10-03T14:13:50.445Z,52.60
2017-10-03T14:16:18.837Z,51.80
2017-10-03T14:18:47.132Z,51.90
2017-10-03T14:21:16.611Z,54.10
2017-10-03T14:23:45.110Z,54.00
2017-10-03T14:26:14.409Z,53.10
2017-10-03T14:28:43.417Z,53.20
2017-10-03T14:31:12.537Z,51.90
2017-10-03T14:33:41.078Z,51.80
2017-10-03T14:36:10.319Z,51.10
2017-10-03T14:38:38.858Z,51.10
2017-10-03T14:41:07.735Z,51.30
2017-10-03T14:43:36.214Z,50.40
2017-10-03T14:46:04.899Z,50.10
2017-10-03T14:48:33.598Z,51.30
2017-10-03T14:51:03.340Z,51.10
2017-10-03T14:53:31.894Z,51.10
2017-10-03T14:56:01.078Z,50.30
2017-10-03T14:58:29.697Z,50.50
2017-10-03T15:00:58.250Z,50.40
2017-10-03T15:03:28.048Z,49.80
2017-10-03T15:05:56.534Z,49.80
2017-10-03T15:08:24.816Z,51.10
2017-10-03T15:10:54.146Z,50.30
2017-10-03T15:13:22.619Z,50.20
2017-10-03T15:15:51.913Z,50.40
2017-10-03T15:18:21.290Z,50.20
2017-10-03T15:20:49.731Z,50.20
2017-10-03T15:23:18.076Z,50.40
2017-10-03T15:25:47.249Z,50.50
2017-10-03T15:28:17.057Z,50.10
2017-10-03T15:30:45.727Z,50.20
2017-10-03T15:33:14.222Z,50.10
2017-10-03T15:35:43.421Z,50.20
2017-10-03T15:38:12.509Z,50.00
2017-10-03T15:40:40.891Z,50.00
2017-10-03T15:43:09.464Z,49.50
2017-10-03T15:45:37.946Z,50.00
2017-10-03T15:48:06.542Z,50.20
2017-10-03T15:50:36.134Z,49.00
2017-10-03T15:53:06.188Z,49.60
2017-10-03T15:55:35.145Z,52.40
2017-10-03T15:58:03.636Z,52.40
2017-10-03T16:00:33.024Z,56.40
2017-10-03T16:03:02.838Z,56.10
2017-10-03T16:05:31.168Z,56.70
2017-10-03T16:07:59.503Z,56.50
2017-10-03T16:10:28.064Z,57.10
2017-10-03T16:12:56.371Z,57.40
2017-10-03T16:15:25.387Z,57.10
2017-10-03T16:17:53.718Z,57.10
2017-10-03T16:20:22.426Z,58.00
2017-10-03T16:22:51.708Z,58.20
2017-10-03T16:25:20.295Z,58.20
2017-10-03T16:27:48.859Z,58.50
2017-10-03T16:30:17.240Z,59.30
2017-10-03T16:32:45.530Z,58.70
2017-10-03T16:35:13.708Z,58.90
2017-10-03T16:37:42.292Z,59.00
2017-10-03T16:40:11.772Z,59.40
2017-10-03T16:42:40.416Z,59.40
2017-10-03T16:45:08.829Z,59.70
2017-10-03T16:47:37.234Z,59.30
2017-10-03T16:50:05.886Z,59.80
2017-10-03T16:52:34.295Z,59.90
2017-10-03T16:55:02.785Z,60.00
2017-10-03T16:57:31.293Z,60.10
2017-10-03T16:59:59.788Z,59.80
2017-10-03T17:02:28.219Z,60.10
2017-10-03T17:04:56.485Z,60.40
2017-10-03T17:07:24.739Z,60.70
2017-10-03T17:09:53.167Z,61.20
2017-10-03T17:12:22.342Z,61.30
2017-10-03T17:14:50.848Z,61.20
2017-10-03T17:17:20.004Z,61.30
2017-10-03T17:19:48.212Z,61.30
2017-10-03T17:22:17.378Z,61.40
2017-10-03T17:24:45.596Z,61.20
2017-10-03T17:27:14.745Z,62.60
2017-10-03T17:29:43.132Z,61.90
2017-10-03T17:32:11.740Z,62.00
2017-10-03T17:34:41.028Z,62.40
2017-10-03T17:37:09.415Z,62.30
2017-10-03T17:39:38.286Z,62.60
2017-10-03T17:42:06.596Z,62.60
2017-10-03T17:44:35.053Z,62.90
2017-10-03T17:47:03.342Z,63.10
2017-10-03T17:49:32.733Z,63.20
2017-10-03T17:52:02.073Z,63.40
2017-10-03T17:54:30.828Z,63.40
2017-10-03T17:57:00.012Z,63.70
2017-10-03T17:59:29.152Z,63.80
2017-10-03T18:01:57.598Z,63.80
2017-10-03T18:04:26.776Z,65.10
2017-10-03T18:06:54.974Z,64.40
2017-10-03T18:09:24.272Z,64.10
2017-10-03T18:11:53.540Z,64.20
2017-10-03T18:14:22.157Z,64.10
2017-10-03T18:16:51.339Z,64.30
2017-10-03T18:19:19.516Z,64.30
2017-10-03T18:21:48.954Z,64.70
2017-10-03T18:24:17.196Z,64.60
2017-10-03T18:26:46.178Z,65.20
2017-10-03T18:29:14.649Z,65.10
2017-10-03T18:31:43.123Z,65.30
2017-10-03T18:34:11.649Z,65.00
2017-10-03T18:36:40.305Z,64.80
2017-10-03T18:39:08.892Z,64.80
2017-10-03T18:41:37.447Z,64.30
2017-10-03T18:44:06.158Z,64.80
2017-10-03T18:46:34.783Z,64.70
2017-10-03T18:49:03.417Z,64.20
2017-10-03T18:51:31.617Z,63.90
2017-10-03T18:54:00.920Z,64.10
2017-10-03T18:56:29.586Z,63.90
2017-10-03T18:58:58.770Z,63.70
2017-10-03T19:01:27.370Z,63.60
2017-10-03T19:03:56.553Z,63.00
2017-10-03T19:06:24.832Z,62.90
2017-10-03T19:08:53.891Z,62.30
2017-10-03T19:11:22.485Z,62.30
2017-10-03T19:13:51.938Z,62.10
2017-10-03T19:16:21.411Z,61.10
2017-10-03T19:18:49.688Z,61.10
2017-10-03T19:21:18.204Z,61.00
2017-10-03T19:23:46.763Z,61.50
2017-10-03T19:26:16.468Z,61.50
2017-10-03T19:28:44.883Z,61.50
2017-10-03T19:31:13.030Z,61.50
2017-10-03T19:33:42.422Z,61.50
2017-10-03T19:36:11.829Z,61.70
2017-10-03T19:38:41.211Z,61.80
2017-10-03T19:41:09.716Z,61.80
2017-10-03T19:43:37.970Z,61.70
2017-10-03T19:46:06.419Z,61.40
2017-10-03T19:48:35.056Z,61.10
2017-10-03T19:51:04.235Z,60.80
2017-10-03T19:53:32.613Z,60.70
2017-10-03T19:56:00.988Z,60.90
2017-10-03T19:58:29.808Z,60.50
2017-10-03T20:00:58.160Z,60.60
2017-10-03T20:03:26.752Z,60.20
2017-10-03T20:05:56.147Z,60.60
2017-10-03T20:08:25.228Z,61.00
2017-10-03T20:10:54.529Z,60.50
2017-10-03T20:13:23.005Z,60.60
2017-10-03T20:15:51.704Z,60.20
2017-10-03T20:18:20.239Z,60.30
2017-10-03T20:20:48.666Z,60.80
2017-10-03T20:23:18.075Z,61.40
2017-10-03T20:25:47.273Z,61.60
2017-10-03T20:28:15.674Z,61.50
2017-10-03T20:30:44.023Z,61.40
2017-10-03T20:33:13.104Z,61.00
2017-10-03T20:35:41.796Z,61.00
2017-10-03T20:38:10.269Z,60.90
2017-10-03T20:40:38.655Z,61.60
2017-10-03T20:43:06.893Z,61.20
2017-10-03T20:45:35.408Z,60.90
2017-10-03T20:48:03.674Z,60.70
2017-10-03T20:50:32.479Z,60.80
2017-10-03T20:53:02.268Z,61.10
2017-10-03T20:55:30.759Z,61.00
2017-10-03T20:57:59.213Z,61.00
2017-10-03T21:00:27.733Z,61.00
2017-10-03T21:02:56.131Z,60.80
2017-10-03T21:05:25.580Z,60.60
2017-10-03T21:07:54.086Z,60.60
2017-10-03T21:10:22.568Z,60.80
2017-10-03T21:12:50.768Z,60.80
2017-10-03T21:15:19.227Z,61.40
2017-10-03T21:20:12.612Z,61.00
2017-10-03T21:22:41.811Z,60.70
2017-10-03T21:25:10.936Z,60.90
2017-10-03T21:27:39.384Z,60.90
2017-10-03T21:30:08.357Z,61.10
2017-10-03T21:32:36.738Z,61.10
2017-10-03T21:35:05.335Z,61.10
2017-10-03T21:37:34.555Z,61.60
2017-10-03T21:40:02.745Z,61.60
2017-10-03T21:42:42.948Z,61.80
2017-10-03T21:45:11.528Z,61.80
2017-10-03T21:47:40.332Z,62.00
2017-10-03T21:50:09.551Z,61.50
2017-10-03T21:52:37.995Z,61.50
2017-10-03T21:55:06.271Z,61.40
2017-10-03T21:57:34.591Z,61.80
2017-10-03T22:00:02.733Z,62.10
2017-10-03T22:02:32.113Z,62.70
2017-10-03T22:05:00.915Z,62.60
2017-10-03T22:07:29.439Z,62.70
2017-10-03T22:09:57.614Z,62.60
2017-10-03T22:12:26.253Z,62.40
2017-10-03T22:14:54.693Z,61.80
2017-10-03T22:17:23.113Z,61.70
2017-10-03T22:19:52.196Z,62.00
2017-10-03T22:22:21.141Z,61.90
2017-10-03T22:24:50.040Z,62.00
2017-10-03T22:27:18.949Z,62.10
2017-10-03T22:29:47.880Z,61.90
2017-10-03T22:32:17.658Z,61.70
2017-10-03T22:34:46.889Z,61.60
2017-10-03T22:37:16.750Z,61.70
2017-10-03T22:39:45.819Z,61.70
2017-10-03T22:42:14.959Z,61.90
2017-10-03T22:44:45.183Z,62.00
2017-10-03T22:47:14.409Z,62.00
2017-10-03T22:49:44.180Z,62.40
2017-10-03T22:52:18.119Z,62.40
2017-10-03T22:54:47.789Z,62.30
2017-10-03T22:57:16.621Z,62.30
2017-10-03T22:59:46.341Z,62.70
2017-10-03T23:02:15.810Z,62.90
2017-10-03T23:04:44.280Z,62.80
2017-10-03T23:07:13.160Z,63.00
2017-10-03T23:09:42.359Z,63.10
2017-10-03T23:12:11.539Z,62.90
2017-10-03T23:14:40.019Z,63.00
2017-10-03T23:17:09.200Z,63.10
2017-10-03T23:19:38.648Z,63.10
2017-10-03T23:22:07.529Z,63.30
2017-10-03T23:24:36.400Z,63.50
2017-10-03T23:27:05.129Z,63.90
2017-10-03T23:29:34.433Z,64.10
2017-10-03T23:32:03.954Z,64.00
2017-10-03T23:34:33.866Z,64.20
2017-10-03T23:37:03.463Z,64.30
2017-10-03T23:39:32.862Z,64.50
2017-10-03T23:42:01.969Z,64.20
2017-10-03T23:44:31.328Z,64.40
2017-10-03T23:46:59.750Z,64.30
2017-10-03T23:49:29.051Z,64.30
2017-10-03T23:51:58.031Z,64.30
2017-10-03T23:54:26.300Z,64.30
2017-10-03T23:56:55.650Z,64.30
2017-10-03T23:59:24.790Z,64.10
